createdAt,value
2023-04-20T00:01:00.586Z,9.68
2023-04-20T00:03:27.504Z,10.15
2023-04-20T00:05:54.542Z,10.35
2023-04-20T00:08:21.507Z,9.80
2023-04-20T00:10:49.786Z,8.38
2023-04-20T00:13:16.621Z,7.75
2023-04-20T00:15:43.633Z,7.45
2023-04-20T00:18:10.575Z,7.20
2023-04-20T00:20:37.689Z,6.38
2023-04-20T00:23:04.793Z,6.50
2023-04-20T00:25:31.620Z,6.45
2023-04-20T00:28:00.521Z,6.45
2023-04-20T00:30:27.801Z,6.40
2023-04-20T00:32:55.053Z,6.15
2023-04-20T00:35:21.976Z,5.88
2023-04-20T00:37:48.788Z,6.10
2023-04-20T00:40:15.717Z,6.30
2023-04-20T00:42:42.578Z,6.18
2023-04-20T00:45:11.231Z,7.40
2023-04-20T00:47:38.433Z,6.88
2023-04-20T00:50:06.821Z,7.75
2023-04-20T00:52:34.297Z,7.60
2023-04-20T00:55:01.862Z,7.15
2023-04-20T00:57:29.006Z,6.75
2023-04-20T00:59:55.802Z,6.90
2023-04-20T01:02:24.423Z,6.13
2023-04-20T01:04:51.463Z,6.57
2023-04-20T01:07:18.434Z,5.80
2023-04-20T01:09:45.367Z,5.65
2023-04-20T01:12:12.361Z,6.20
2023-04-20T01:14:39.275Z,6.18
2023-04-20T01:17:06.181Z,6.38
2023-04-20T01:19:34.933Z,6.10
2023-04-20T01:22:01.854Z,6.25
2023-04-20T01:24:30.145Z,5.97
2023-04-20T01:26:56.958Z,5.70
2023-04-20T01:29:23.859Z,5.28
2023-04-20T01:31:50.717Z,5.72
2023-04-20T01:34:17.794Z,5.53
2023-04-20T01:36:44.658Z,5.50
2023-04-20T01:39:13.940Z,5.80
2023-04-20T01:41:42.144Z,5.50
2023-04-20T01:44:09.287Z,5.35
2023-04-20T01:46:38.072Z,5.22
2023-04-20T01:49:05.427Z,5.57
2023-04-20T01:51:32.302Z,5.47
2023-04-20T01:53:59.417Z,5.18
2023-04-20T01:56:26.308Z,4.68
2023-04-20T01:58:54.796Z,3.90
2023-04-20T02:01:21.878Z,3.78
2023-04-20T02:03:49.485Z,3.88
2023-04-20T02:06:16.633Z,3.78
2023-04-20T02:08:43.546Z,3.65
2023-04-20T02:11:10.372Z,3.40
2023-04-20T02:13:37.362Z,3.60
2023-04-20T02:16:06.428Z,2.92
2023-04-20T02:18:33.353Z,3.40
2023-04-20T02:21:01.023Z,3.35
2023-04-20T02:23:27.969Z,3.08
2023-04-20T02:25:54.949Z,3.10
2023-04-20T02:28:21.726Z,3.22
2023-04-20T02:30:48.582Z,2.78
2023-04-20T02:33:16.989Z,2.78
2023-04-20T02:35:43.938Z,3.30
2023-04-20T02:38:10.801Z,2.80
2023-04-20T02:40:37.591Z,2.92
2023-04-20T02:43:04.676Z,3.00
2023-04-20T02:45:32.002Z,3.03
2023-04-20T02:47:58.838Z,3.10
2023-04-20T02:50:27.233Z,2.90
2023-04-20T02:52:54.120Z,2.92
2023-04-20T02:55:21.011Z,3.20
2023-04-20T02:57:47.971Z,3.10
2023-04-20T03:00:15.451Z,3.20
2023-04-20T03:02:42.374Z,3.45
2023-04-20T03:05:09.645Z,3.30
2023-04-20T03:07:38.182Z,3.33
2023-04-20T03:10:06.144Z,3.78
2023-04-20T03:12:33.078Z,3.65
2023-04-20T03:14:59.864Z,3.70
2023-04-20T03:17:26.796Z,4.47
2023-04-20T03:19:53.737Z,3.47
2023-04-20T03:22:20.562Z,3.85
2023-04-20T03:24:49.527Z,3.65
2023-04-20T03:27:17.593Z,4.35
2023-04-20T03:29:44.572Z,4.20
2023-04-20T03:32:11.504Z,4.05
2023-04-20T03:34:38.535Z,4.00
2023-04-20T03:37:05.343Z,4.13
2023-04-20T03:39:32.252Z,4.45
2023-04-20T03:42:00.665Z,3.97
2023-04-20T03:44:27.497Z,4.78
2023-04-20T03:46:54.479Z,4.72
2023-04-20T03:49:24.620Z,4.88
2023-04-20T03:51:51.424Z,4.97
2023-04-20T03:54:18.367Z,5.15
2023-04-20T03:56:45.322Z,5.70
2023-04-20T03:59:13.859Z,5.20
2023-04-20T04:01:40.835Z,4.90
2023-04-20T04:04:08.453Z,5.05
2023-04-20T04:06:35.785Z,4.75
2023-04-20T04:09:02.754Z,3.92
2023-04-20T04:11:30.491Z,4.20
2023-04-20T04:13:59.235Z,4.18
2023-04-20T04:16:27.885Z,4.35
2023-04-20T04:18:55.139Z,3.88
2023-04-20T04:21:22.224Z,3.55
2023-04-20T04:23:49.693Z,3.97
2023-04-20T04:26:17.033Z,3.67
2023-04-20T04:28:46.326Z,4.68
2023-04-20T04:31:13.330Z,3.72
2023-04-20T04:33:42.328Z,5.50
2023-04-20T04:36:10.267Z,4.15
2023-04-20T04:38:37.471Z,4.22
2023-04-20T04:41:04.877Z,4.68
2023-04-20T04:43:32.060Z,4.25
2023-04-20T04:45:59.554Z,4.30
2023-04-20T04:48:26.361Z,4.95
2023-04-20T04:50:54.436Z,4.25
2023-04-20T04:53:21.495Z,4.05
2023-04-20T04:55:53.888Z,4.10
2023-04-20T04:58:21.245Z,4.40
2023-04-20T05:00:51.566Z,4.72
2023-04-20T05:03:18.748Z,4.68
2023-04-20T05:05:46.274Z,4.45
2023-04-20T05:08:14.852Z,4.68
2023-04-20T05:10:43.151Z,4.93
2023-04-20T05:13:10.890Z,3.40
2023-04-20T05:15:38.956Z,2.65
2023-04-20T05:18:06.283Z,2.80
2023-04-20T05:20:33.252Z,3.03
2023-04-20T05:23:00.289Z,2.88
2023-04-20T05:25:28.431Z,2.90
2023-04-20T05:27:55.186Z,2.53
2023-04-20T05:30:22.421Z,3.05
2023-04-20T05:32:51.916Z,2.72
2023-04-20T05:35:19.665Z,2.63
2023-04-20T05:37:46.652Z,5.32
2023-04-20T05:40:13.638Z,3.65
2023-04-20T05:42:41.888Z,3.10
2023-04-20T05:45:10.300Z,3.40
2023-04-20T05:47:37.205Z,3.90
2023-04-20T05:50:04.671Z,3.90
2023-04-20T05:52:31.573Z,3.50
2023-04-20T05:54:58.402Z,3.45
2023-04-20T05:57:25.238Z,3.40
2023-04-20T05:59:53.841Z,3.65
2023-04-20T06:02:20.668Z,3.75
2023-04-20T06:04:47.981Z,3.45
2023-04-20T06:07:14.892Z,3.90
2023-04-20T06:09:41.620Z,3.30
2023-04-20T06:12:08.422Z,3.35
2023-04-20T06:14:35.176Z,3.20
2023-04-20T06:17:03.292Z,3.28
2023-04-20T06:19:30.060Z,2.75
2023-04-20T06:22:00.203Z,3.15
2023-04-20T06:24:27.692Z,3.00
2023-04-20T06:26:54.589Z,3.30
2023-04-20T06:29:21.359Z,2.78
2023-04-20T06:31:48.149Z,3.42
2023-04-20T06:34:16.305Z,3.42
2023-04-20T06:36:43.273Z,2.88
2023-04-20T06:39:10.056Z,3.13
2023-04-20T06:41:37.378Z,2.90
2023-04-20T06:44:04.240Z,2.72
2023-04-20T06:46:31.204Z,2.50
2023-04-20T06:48:58.015Z,2.42
2023-04-20T06:51:26.137Z,2.50
2023-04-20T06:53:52.985Z,2.55
2023-04-20T06:56:19.764Z,2.58
2023-04-20T06:58:46.593Z,2.97
2023-04-20T07:01:13.452Z,3.25
2023-04-20T07:03:40.404Z,3.45
2023-04-20T07:06:07.446Z,3.67
2023-04-20T07:08:35.745Z,3.00
2023-04-20T07:11:02.532Z,2.85
2023-04-20T07:13:33.950Z,3.53
2023-04-20T07:16:01.030Z,2.88
2023-04-20T07:18:27.850Z,2.97
2023-04-20T07:20:54.824Z,2.65
2023-04-20T07:23:21.594Z,3.00
2023-04-20T07:25:49.751Z,2.60
2023-04-20T07:28:16.531Z,2.88
2023-04-20T07:30:43.385Z,2.90
2023-04-20T07:33:10.195Z,2.85
2023-04-20T07:35:37.454Z,3.08
2023-04-20T07:38:04.202Z,2.95
2023-04-20T07:40:30.968Z,3.00
2023-04-20T07:42:59.211Z,3.08
2023-04-20T07:45:26.154Z,3.47
2023-04-20T07:47:53.321Z,3.40
2023-04-20T07:50:20.204Z,3.65
2023-04-20T07:52:46.973Z,3.83
2023-04-20T07:55:13.872Z,3.88
2023-04-20T07:57:40.823Z,4.13
2023-04-20T08:00:10.431Z,3.88
2023-04-20T08:02:37.387Z,4.60
2023-04-20T08:05:05.059Z,4.80
2023-04-20T08:07:32.007Z,4.80
2023-04-20T08:09:58.978Z,3.83
2023-04-20T08:12:25.726Z,4.22
2023-04-20T08:14:52.553Z,3.85
2023-04-20T08:17:20.907Z,4.13
2023-04-20T08:19:47.760Z,4.60
2023-04-20T08:22:14.554Z,4.38
2023-04-20T08:24:41.326Z,4.28
2023-04-20T08:27:08.927Z,4.75
2023-04-20T08:29:35.869Z,4.43
2023-04-20T08:32:03.641Z,4.15
2023-04-20T08:34:31.850Z,4.47
2023-04-20T08:36:58.602Z,4.13
2023-04-20T08:39:25.496Z,4.07
2023-04-20T08:41:52.318Z,4.20
2023-04-20T08:44:19.275Z,4.40
2023-04-20T08:46:48.041Z,4.40
2023-04-20T08:49:16.325Z,4.68
2023-04-20T08:51:45.868Z,3.53
2023-04-20T08:54:13.181Z,4.43
2023-04-20T08:56:41.886Z,4.22
2023-04-20T08:59:08.839Z,4.15
2023-04-20T09:01:36.411Z,4.65
2023-04-20T09:04:14.799Z,3.95
2023-04-20T09:06:45.423Z,4.18
2023-04-20T09:09:12.296Z,4.32
2023-04-20T09:11:39.138Z,5.22
2023-04-20T09:14:07.293Z,4.68
2023-04-20T09:16:34.492Z,4.00
2023-04-20T09:19:01.392Z,4.35
2023-04-20T09:21:28.933Z,4.20
2023-04-20T09:23:59.356Z,4.10
2023-04-20T09:26:26.193Z,3.60
2023-04-20T09:28:53.049Z,4.28
2023-04-20T09:31:21.170Z,4.13
2023-04-20T09:33:56.761Z,3.72
2023-04-20T09:36:23.608Z,3.63
2023-04-20T09:39:03.022Z,3.30
2023-04-20T09:41:31.252Z,3.50
2023-04-20T09:43:58.916Z,3.60
2023-04-20T09:46:29.272Z,3.67
2023-04-20T09:48:56.850Z,3.45
2023-04-20T09:51:25.860Z,4.07
2023-04-20T09:53:53.407Z,3.95
2023-04-20T09:56:22.092Z,4.38
2023-04-20T09:58:49.742Z,3.60
2023-04-20T10:01:16.584Z,3.58
2023-04-20T10:03:44.050Z,3.42
2023-04-20T10:06:19.440Z,3.83
2023-04-20T10:08:46.258Z,3.85
2023-04-20T10:11:37.100Z,4.03
2023-04-20T10:14:16.514Z,3.35
2023-04-20T10:16:44.099Z,3.38
2023-04-20T10:19:11.181Z,3.53
2023-04-20T10:21:46.481Z,3.90
2023-04-20T10:24:13.626Z,2.90
2023-04-20T10:26:44.285Z,4.13
2023-04-20T10:29:11.648Z,4.05
2023-04-20T10:31:39.376Z,4.72
2023-04-20T10:34:07.695Z,4.43
2023-04-20T10:36:35.701Z,5.07
2023-04-20T10:39:14.948Z,4.65
2023-04-20T10:41:55.168Z,4.50
2023-04-20T10:44:22.057Z,4.85
2023-04-20T10:46:49.743Z,4.15
2023-04-20T10:49:17.324Z,4.50
2023-04-20T10:51:48.715Z,4.93
2023-04-20T10:54:17.688Z,4.97
2023-04-20T10:56:47.052Z,4.32
2023-04-20T10:59:16.918Z,3.65
2023-04-20T11:01:45.223Z,4.18
2023-04-20T11:04:12.718Z,4.28
2023-04-20T11:06:40.484Z,3.80
2023-04-20T11:09:17.393Z,4.05
2023-04-20T11:11:44.483Z,4.10
2023-04-20T11:14:12.609Z,4.00
2023-04-20T11:16:52.057Z,4.20
2023-04-20T11:19:26.884Z,4.22
2023-04-20T11:21:53.931Z,3.88
2023-04-20T11:24:22.046Z,4.07
2023-04-20T11:26:49.545Z,4.18
2023-04-20T11:29:31.113Z,4.53
2023-04-20T11:32:00.614Z,3.80
2023-04-20T11:34:27.774Z,4.25
2023-04-20T11:36:54.923Z,4.07
2023-04-20T11:39:23.708Z,4.40
2023-04-20T11:41:50.874Z,3.72
2023-04-20T11:44:17.979Z,3.38
2023-04-20T11:46:45.544Z,3.20
2023-04-20T11:49:14.028Z,3.78
2023-04-20T11:51:41.022Z,3.65
2023-04-20T11:54:08.004Z,4.57
2023-04-20T11:56:35.113Z,3.42
2023-04-20T11:59:01.980Z,3.10
2023-04-20T12:01:28.831Z,3.03
2023-04-20T12:03:55.847Z,3.00
2023-04-20T12:06:24.146Z,2.67
2023-04-20T12:08:50.974Z,2.92
2023-04-20T12:11:17.909Z,2.92
2023-04-20T12:13:44.729Z,3.20
2023-04-20T12:16:11.522Z,3.03
2023-04-20T12:18:38.382Z,3.13
2023-04-20T12:21:05.552Z,3.38
2023-04-20T12:23:34.039Z,2.97
2023-04-20T12:26:00.909Z,3.33
2023-04-20T12:28:27.685Z,3.35
2023-04-20T12:30:54.542Z,3.08
2023-04-20T12:33:21.408Z,3.20
2023-04-20T12:35:48.269Z,3.67
2023-04-20T12:38:15.060Z,3.20
2023-04-20T12:40:43.242Z,3.20
2023-04-20T12:43:10.129Z,3.85
2023-04-20T12:45:36.924Z,3.60
2023-04-20T12:48:04.381Z,4.60
2023-04-20T12:50:31.444Z,3.63
2023-04-20T12:52:58.459Z,3.47
2023-04-20T12:55:26.306Z,3.83
2023-04-20T12:57:54.658Z,4.57
2023-04-20T13:00:21.637Z,4.20
2023-04-20T13:02:48.709Z,4.85
2023-04-20T13:05:15.822Z,4.88
2023-04-20T13:07:42.635Z,4.50
2023-04-20T13:10:09.921Z,4.50
2023-04-20T13:12:36.784Z,4.72
2023-04-20T13:15:06.782Z,4.47
2023-04-20T13:17:33.694Z,4.50
2023-04-20T13:20:00.542Z,4.50
2023-04-20T13:22:27.708Z,4.80
2023-04-20T13:24:54.504Z,4.20
2023-04-20T13:27:21.315Z,4.32
2023-04-20T13:29:48.092Z,4.55
2023-04-20T13:32:16.248Z,4.50
2023-04-20T13:34:43.085Z,4.18
2023-04-20T13:37:09.878Z,4.07
2023-04-20T13:39:36.730Z,4.43
2023-04-20T13:42:03.726Z,4.18
2023-04-20T13:44:30.570Z,4.95
2023-04-20T13:46:57.947Z,4.30
2023-04-20T13:49:26.170Z,4.40
2023-04-20T13:51:53.478Z,5.75
2023-04-20T13:54:20.408Z,4.97
2023-04-20T13:56:47.297Z,4.50
2023-04-20T13:59:14.127Z,5.53
2023-04-20T14:01:41.116Z,4.70
2023-04-20T14:04:09.336Z,5.53
2023-04-20T14:06:42.039Z,5.47
2023-04-20T14:09:08.854Z,5.18
2023-04-20T14:11:35.784Z,6.20
2023-04-20T14:14:02.679Z,6.03
2023-04-20T14:16:29.643Z,6.32
2023-04-20T14:18:56.632Z,6.65
2023-04-20T14:21:23.598Z,6.63
2023-04-20T14:23:51.880Z,6.18
2023-04-20T14:26:18.884Z,6.93
2023-04-20T14:28:45.682Z,6.80
2023-04-20T14:31:12.528Z,7.18
2023-04-20T14:33:39.474Z,7.85
2023-04-20T14:36:06.767Z,8.02
2023-04-20T14:38:33.581Z,8.00
2023-04-20T14:41:01.925Z,7.20
2023-04-20T14:43:28.915Z,8.45
2023-04-20T14:45:55.805Z,8.68
2023-04-20T14:48:24.351Z,8.65
2023-04-20T14:50:51.388Z,8.60
2023-04-20T14:53:18.180Z,8.90
2023-04-20T14:55:44.965Z,9.15
2023-04-20T14:58:16.399Z,8.20
2023-04-20T15:00:43.206Z,8.43
2023-04-20T15:03:10.168Z,8.63
2023-04-20T15:05:37.234Z,9.13
2023-04-20T15:08:04.536Z,8.52
2023-04-20T15:10:31.403Z,9.70
2023-04-20T15:12:58.152Z,8.55
2023-04-20T15:15:34.566Z,8.32
2023-04-20T15:18:08.396Z,8.32
2023-04-20T15:20:35.204Z,9.43
2023-04-20T15:23:01.998Z,9.25
2023-04-20T15:25:28.796Z,9.10
2023-04-20T15:27:55.829Z,9.00
2023-04-20T15:30:22.612Z,9.20
2023-04-20T15:32:50.887Z,10.45
2023-04-20T15:35:17.798Z,8.45
2023-04-20T15:37:45.580Z,9.25
2023-04-20T15:40:12.788Z,8.73
2023-04-20T15:42:39.593Z,9.48
2023-04-20T15:45:08.085Z,9.00
2023-04-20T15:47:35.098Z,9.23
2023-04-20T15:50:03.469Z,9.60
2023-04-20T15:52:31.283Z,9.52
2023-04-20T15:54:58.147Z,9.15
2023-04-20T15:57:24.974Z,9.20
2023-04-20T15:59:51.752Z,10.68
2023-04-20T16:02:18.702Z,9.75
2023-04-20T16:04:45.759Z,9.40
2023-04-20T16:07:14.711Z,9.68
2023-04-20T16:09:41.609Z,9.20
2023-04-20T16:12:08.375Z,9.68
2023-04-20T16:14:35.261Z,9.13
2023-04-20T16:17:02.432Z,8.90
2023-04-20T16:19:30.706Z,9.23
2023-04-20T16:21:58.427Z,9.98
2023-04-20T16:24:26.706Z,9.25
2023-04-20T16:26:53.524Z,10.38
2023-04-20T16:29:20.306Z,9.45
2023-04-20T16:31:47.172Z,9.40
2023-04-20T16:34:13.980Z,9.82
2023-04-20T16:36:40.855Z,9.90
2023-04-20T16:39:07.616Z,9.80
2023-04-20T16:41:35.892Z,9.82
2023-04-20T16:44:02.735Z,10.07
2023-04-20T16:46:29.635Z,9.60
2023-04-20T16:48:56.541Z,8.57
2023-04-20T16:51:23.305Z,9.25
2023-04-20T16:53:52.032Z,9.40
2023-04-20T16:59:06.811Z,8.68
2023-04-20T17:01:33.715Z,9.55
2023-04-20T17:04:00.713Z,10.35
2023-04-20T17:06:27.848Z,9.63
2023-04-20T17:08:54.679Z,9.88
2023-04-20T17:11:21.515Z,10.00
2023-04-20T17:13:48.282Z,9.68
2023-04-20T17:16:16.574Z,10.63
2023-04-20T17:18:43.419Z,10.13
2023-04-20T17:21:10.296Z,10.77
2023-04-20T17:23:37.047Z,10.68
2023-04-20T17:26:03.889Z,10.85
2023-04-20T17:28:30.696Z,10.15
2023-04-20T17:30:57.526Z,11.00
2023-04-20T17:33:25.695Z,10.32
2023-04-20T17:35:52.485Z,11.10
2023-04-20T17:38:19.230Z,10.18
2023-04-20T17:40:46.045Z,10.07
2023-04-20T17:43:12.878Z,9.98
2023-04-20T17:45:39.697Z,10.45
2023-04-20T17:48:07.012Z,10.30
2023-04-20T17:50:35.290Z,10.05
2023-04-20T17:53:02.133Z,9.45
2023-04-20T17:55:28.879Z,9.63
2023-04-20T17:57:55.705Z,8.70
2023-04-20T18:00:22.516Z,9.15
2023-04-20T18:02:49.460Z,9.20
2023-04-20T18:05:16.364Z,8.57
2023-04-20T18:07:44.610Z,8.77
2023-04-20T18:10:11.558Z,8.60
2023-04-20T18:12:38.399Z,7.85
2023-04-20T18:15:08.342Z,7.20
2023-04-20T18:17:35.795Z,7.00
2023-04-20T18:20:02.704Z,7.32
2023-04-20T18:22:29.460Z,6.85
2023-04-20T18:24:57.588Z,7.43
2023-04-20T18:27:24.389Z,7.15
2023-04-20T18:29:51.114Z,7.60
2023-04-20T18:32:17.863Z,6.75
2023-04-20T18:34:44.736Z,7.70
2023-04-20T18:37:11.666Z,7.75
2023-04-20T18:39:38.559Z,8.27
2023-04-20T18:42:06.702Z,8.38
2023-04-20T18:44:33.539Z,8.70
2023-04-20T18:47:00.525Z,9.30
2023-04-20T18:49:27.387Z,8.52
2023-04-20T18:51:54.151Z,8.48
2023-04-20T18:54:21.113Z,7.95
2023-04-20T18:56:47.968Z,8.23
2023-04-20T18:59:16.099Z,8.45
2023-04-20T19:01:42.872Z,8.23
2023-04-20T19:04:09.882Z,8.48
2023-04-20T19:06:36.727Z,8.18
2023-04-20T19:09:04.481Z,8.45
2023-04-20T19:11:32.671Z,8.35
2023-04-20T19:13:59.455Z,8.35
2023-04-20T19:16:29.419Z,8.10
2023-04-20T19:18:56.170Z,8.40
2023-04-20T19:21:22.941Z,8.88
2023-04-20T19:23:49.741Z,8.13
2023-04-20T19:26:16.560Z,7.72
2023-04-20T19:28:43.595Z,8.35
2023-04-20T19:31:10.400Z,7.68
2023-04-20T19:33:38.949Z,7.75
2023-04-20T19:36:06.084Z,8.80
2023-04-20T19:38:34.224Z,8.82
2023-04-20T19:41:01.441Z,8.63
2023-04-20T19:43:28.430Z,8.77
2023-04-20T19:45:55.801Z,9.30
2023-04-20T19:48:22.627Z,8.57
2023-04-20T19:50:51.482Z,8.85
2023-04-20T19:53:18.385Z,9.05
2023-04-20T19:55:45.180Z,9.68
2023-04-20T19:58:11.980Z,9.35
2023-04-20T20:00:38.832Z,9.40
2023-04-20T20:03:06.137Z,8.73
2023-04-20T20:05:33.059Z,9.55
2023-04-20T20:08:01.506Z,8.32
2023-04-20T20:10:28.355Z,8.93
2023-04-20T20:12:55.101Z,9.15
2023-04-20T20:15:21.873Z,8.43
2023-04-20T20:17:48.646Z,8.52
2023-04-20T20:20:15.480Z,8.95
2023-04-20T20:22:42.335Z,8.60
2023-04-20T20:25:10.500Z,9.25
2023-04-20T20:27:37.236Z,7.97
2023-04-20T20:30:04.929Z,7.88
2023-04-20T20:32:31.839Z,8.27
2023-04-20T20:34:58.565Z,8.50
2023-04-20T20:37:25.316Z,8.48
2023-04-20T20:39:52.119Z,8.65
2023-04-20T20:42:20.328Z,8.15
2023-04-20T20:44:47.067Z,8.20
2023-04-20T20:47:13.806Z,7.78
2023-04-20T20:49:40.972Z,7.95
2023-04-20T20:52:07.756Z,8.57
2023-04-20T20:54:34.675Z,8.63
2023-04-20T20:57:01.456Z,8.20
2023-04-20T20:59:29.568Z,8.57
2023-04-20T21:01:56.464Z,8.70
2023-04-20T21:04:23.234Z,7.53
2023-04-20T21:06:50.069Z,8.95
2023-04-20T21:09:17.013Z,8.45
2023-04-20T21:11:44.004Z,8.75
2023-04-20T21:14:10.895Z,8.65
2023-04-20T21:16:39.080Z,7.95
2023-04-20T21:19:05.974Z,8.90
2023-04-20T21:21:33.571Z,8.60
2023-04-20T21:24:00.311Z,8.38
2023-04-20T21:26:27.137Z,8.20
2023-04-20T21:28:54.133Z,8.13
2023-04-20T21:31:21.221Z,8.63
2023-04-20T21:33:49.356Z,8.90
2023-04-20T21:36:16.764Z,8.73
2023-04-20T21:38:43.593Z,9.43
2023-04-20T21:41:10.390Z,8.80
2023-04-20T21:43:37.529Z,8.70
2023-04-20T21:46:04.509Z,8.68
2023-04-20T21:48:31.384Z,8.85
2023-04-20T21:50:59.473Z,9.07
2023-04-20T21:53:27.306Z,9.68
2023-04-20T21:55:54.060Z,8.82
2023-04-20T21:58:20.800Z,9.88
2023-04-20T22:00:47.639Z,9.20
2023-04-20T22:03:14.520Z,10.70
2023-04-20T22:05:41.437Z,9.27
2023-04-20T22:08:09.547Z,9.05
2023-04-20T22:10:36.350Z,8.98
2023-04-20T22:13:03.129Z,9.90
2023-04-20T22:15:29.937Z,9.25
2023-04-20T22:17:57.072Z,9.30
2023-04-20T22:20:23.844Z,9.88
2023-04-20T22:22:50.641Z,9.85
2023-04-20T22:25:19.084Z,10.05
2023-04-20T22:27:45.838Z,9.85
2023-04-20T22:30:13.319Z,9.68
2023-04-20T22:32:40.113Z,10.60
2023-04-20T22:35:07.437Z,10.45
2023-04-20T22:37:34.710Z,10.07
2023-04-20T22:40:01.538Z,10.27
2023-04-20T22:42:29.667Z,9.68
2023-04-20T22:44:56.374Z,9.07
2023-04-20T22:47:23.177Z,8.80
2023-04-20T22:49:49.917Z,7.93
2023-04-20T22:52:17.071Z,8.40
2023-04-20T22:54:43.993Z,8.13
2023-04-20T22:57:10.845Z,7.85
2023-04-20T22:59:39.087Z,7.57
2023-04-20T23:02:06.326Z,7.88
2023-04-20T23:04:33.262Z,7.97
2023-04-20T23:07:00.123Z,7.53
2023-04-20T23:09:26.960Z,8.00
2023-04-20T23:11:53.822Z,8.27
2023-04-20T23:14:20.782Z,8.15
2023-04-20T23:16:49.250Z,7.78
2023-04-20T23:19:16.154Z,8.18
2023-04-20T23:21:43.887Z,7.85
2023-04-20T23:24:10.794Z,7.80
2023-04-20T23:26:37.677Z,7.93
2023-04-20T23:29:04.620Z,7.72
2023-04-20T23:31:31.543Z,8.45
2023-04-20T23:33:59.845Z,8.02
2023-04-20T23:36:26.703Z,8.27
2023-04-20T23:38:53.523Z,8.27
2023-04-20T23:41:20.371Z,8.77
2023-04-20T23:43:47.166Z,8.40
2023-04-20T23:46:14.201Z,9.10
2023-04-20T23:48:41.171Z,9.02
2023-04-20T23:51:09.430Z,8.73
2023-04-20T23:53:36.537Z,8.80
2023-04-20T23:56:03.618Z,8.43
2023-04-20T23:58:30.467Z,8.95
